sensor_id;sensor_type;location;lat;lon;timestamp;P1;durP1;ratioP1;P2;durP2;ratioP2
61938;SDS011;47897;50.322;18.892;2023-04-03T00:01:37;25.50;;;10.90;;
61938;SDS011;47897;50.322;18.892;2023-04-03T00:04:04;21.70;;;12.40;;
61938;SDS011;47897;50.322;18.892;2023-04-03T00:06:31;17.40;;;9.20;;
61938;SDS011;47897;50.322;18.892;2023-04-03T00:08:57;22.50;;;11.50;;
61938;SDS011;47897;50.322;18.892;2023-04-03T00:11:23;21.30;;;11.50;;
61938;SDS011;47897;50.322;18.892;2023-04-03T00:13:50;19.40;;;9.30;;
61938;SDS011;47897;50.322;18.892;2023-04-03T00:16:16;16.60;;;7.70;;
61938;SDS011;47897;50.322;18.892;2023-04-03T00:18:42;22.70;;;11.60;;
61938;SDS011;47897;50.322;18.892;2023-04-03T00:21:10;14.90;;;7.90;;
61938;SDS011;47897;50.322;18.892;2023-04-03T00:23:36;22.10;;;11.10;;
61938;SDS011;47897;50.322;18.892;2023-04-03T00:26:02;14.40;;;7.70;;
61938;SDS011;47897;50.322;18.892;2023-04-03T00:28:28;20.90;;;11.60;;
61938;SDS011;47897;50.322;18.892;2023-04-03T00:30:53;15.60;;;7.60;;
61938;SDS011;47897;50.322;18.892;2023-04-03T00:33:20;26.80;;;12.00;;
61938;SDS011;47897;50.322;18.892;2023-04-03T00:35:50;21.70;;;11.60;;
61938;SDS011;47897;50.322;18.892;2023-04-03T00:38:16;24.40;;;9.70;;
61938;SDS011;47897;50.322;18.892;2023-04-03T00:40:43;25.40;;;13.50;;
61938;SDS011;47897;50.322;18.892;2023-04-03T00:43:14;21.70;;;11.40;;
61938;SDS011;47897;50.322;18.892;2023-04-03T00:45:42;24.80;;;13.20;;
61938;SDS011;47897;50.322;18.892;2023-04-03T00:48:10;22.10;;;12.20;;
61938;SDS011;47897;50.322;18.892;2023-04-03T00:50:39;14.60;;;6.70;;
61938;SDS011;47897;50.322;18.892;2023-04-03T00:53:07;31.40;;;15.50;;
61938;SDS011;47897;50.322;18.892;2023-04-03T00:55:34;26.70;;;13.50;;
61938;SDS011;47897;50.322;18.892;2023-04-03T00:58:01;23.10;;;10.70;;
61938;SDS011;47897;50.322;18.892;2023-04-03T01:00:27;25.70;;;14.10;;
61938;SDS011;47897;50.322;18.892;2023-04-03T01:02:53;23.00;;;11.30;;
61938;SDS011;47897;50.322;18.892;2023-04-03T01:05:20;21.50;;;12.00;;
61938;SDS011;47897;50.322;18.892;2023-04-03T01:07:46;24.70;;;13.40;;
61938;SDS011;47897;50.322;18.892;2023-04-03T01:10:14;32.50;;;17.40;;
61938;SDS011;47897;50.322;18.892;2023-04-03T01:12:42;32.10;;;16.90;;
61938;SDS011;47897;50.322;18.892;2023-04-03T01:15:10;38.00;;;17.50;;
61938;SDS011;47897;50.322;18.892;2023-04-03T01:17:38;36.00;;;16.50;;
61938;SDS011;47897;50.322;18.892;2023-04-03T01:22:34;35.10;;;16.30;;
61938;SDS011;47897;50.322;18.892;2023-04-03T01:25:04;24.40;;;12.20;;
61938;SDS011;47897;50.322;18.892;2023-04-03T01:27:31;27.70;;;13.50;;
61938;SDS011;47897;50.322;18.892;2023-04-03T01:29:56;18.50;;;8.50;;
61938;SDS011;47897;50.322;18.892;2023-04-03T01:32:23;30.80;;;15.30;;
61938;SDS011;47897;50.322;18.892;2023-04-03T01:34:49;27.90;;;15.40;;
61938;SDS011;47897;50.322;18.892;2023-04-03T01:37:15;24.50;;;12.70;;
61938;SDS011;47897;50.322;18.892;2023-04-03T01:39:41;27.90;;;14.90;;
61938;SDS011;47897;50.322;18.892;2023-04-03T01:42:07;25.20;;;13.00;;
61938;SDS011;47897;50.322;18.892;2023-04-03T01:44:33;27.40;;;12.70;;
61938;SDS011;47897;50.322;18.892;2023-04-03T01:46:58;20.00;;;11.80;;
61938;SDS011;47897;50.322;18.892;2023-04-03T01:49:24;32.30;;;15.20;;
61938;SDS011;47897;50.322;18.892;2023-04-03T01:51:50;31.80;;;14.40;;
61938;SDS011;47897;50.322;18.892;2023-04-03T01:54:16;15.80;;;7.90;;
61938;SDS011;47897;50.322;18.892;2023-04-03T01:56:42;24.70;;;12.10;;
61938;SDS011;47897;50.322;18.892;2023-04-03T01:59:08;27.10;;;12.80;;
61938;SDS011;47897;50.322;18.892;2023-04-03T02:01:34;18.00;;;9.80;;
61938;SDS011;47897;50.322;18.892;2023-04-03T02:04:00;17.30;;;7.70;;
61938;SDS011;47897;50.322;18.892;2023-04-03T02:06:26;21.70;;;9.50;;
61938;SDS011;47897;50.322;18.892;2023-04-03T02:08:52;18.70;;;8.20;;
61938;SDS011;47897;50.322;18.892;2023-04-03T02:11:18;24.30;;;12.50;;
61938;SDS011;47897;50.322;18.892;2023-04-03T02:13:44;24.80;;;12.20;;
61938;SDS011;47897;50.322;18.892;2023-04-03T02:16:10;17.50;;;5.80;;
61938;SDS011;47897;50.322;18.892;2023-04-03T02:18:37;30.40;;;14.00;;
61938;SDS011;47897;50.322;18.892;2023-04-03T02:21:03;21.30;;;10.60;;
61938;SDS011;47897;50.322;18.892;2023-04-03T02:23:29;21.50;;;9.80;;
61938;SDS011;47897;50.322;18.892;2023-04-03T02:26:02;23.60;;;12.70;;
61938;SDS011;47897;50.322;18.892;2023-04-03T02:28:28;20.10;;;10.30;;
61938;SDS011;47897;50.322;18.892;2023-04-03T02:30:54;27.30;;;12.90;;
61938;SDS011;47897;50.322;18.892;2023-04-03T02:33:20;27.40;;;13.10;;
61938;SDS011;47897;50.322;18.892;2023-04-03T02:35:46;19.40;;;9.40;;
61938;SDS011;47897;50.322;18.892;2023-04-03T02:38:18;13.80;;;7.50;;
61938;SDS011;47897;50.322;18.892;2023-04-03T02:40:44;25.30;;;11.50;;
61938;SDS011;47897;50.322;18.892;2023-04-03T02:43:10;24.00;;;11.60;;
61938;SDS011;47897;50.322;18.892;2023-04-03T02:45:36;22.90;;;10.10;;
61938;SDS011;47897;50.322;18.892;2023-04-03T02:48:02;18.80;;;7.90;;
61938;SDS011;47897;50.322;18.892;2023-04-03T02:50:28;25.70;;;11.90;;
61938;SDS011;47897;50.322;18.892;2023-04-03T02:52:55;18.00;;;8.70;;
61938;SDS011;47897;50.322;18.892;2023-04-03T02:55:21;20.60;;;10.40;;
61938;SDS011;47897;50.322;18.892;2023-04-03T02:57:47;20.80;;;9.40;;
61938;SDS011;47897;50.322;18.892;2023-04-03T03:00:13;23.70;;;12.50;;
61938;SDS011;47897;50.322;18.892;2023-04-03T03:02:40;20.50;;;10.50;;
61938;SDS011;47897;50.322;18.892;2023-04-03T03:05:06;14.90;;;6.50;;
61938;SDS011;47897;50.322;18.892;2023-04-03T03:07:32;18.90;;;9.10;;
61938;SDS011;47897;50.322;18.892;2023-04-03T03:09:58;21.00;;;10.00;;
61938;SDS011;47897;50.322;18.892;2023-04-03T03:12:24;18.20;;;9.40;;
61938;SDS011;47897;50.322;18.892;2023-04-03T03:14:50;21.90;;;8.70;;
61938;SDS011;47897;50.322;18.892;2023-04-03T03:17:17;20.30;;;7.60;;
61938;SDS011;47897;50.322;18.892;2023-04-03T03:19:43;25.30;;;10.30;;
61938;SDS011;47897;50.322;18.892;2023-04-03T03:22:11;14.90;;;6.60;;
61938;SDS011;47897;50.322;18.892;2023-04-03T03:24:37;9.90;;;5.20;;
61938;SDS011;47897;50.322;18.892;2023-04-03T03:27:03;9.10;;;5.10;;
61938;SDS011;47897;50.322;18.892;2023-04-03T03:29:29;18.90;;;7.00;;
61938;SDS011;47897;50.322;18.892;2023-04-03T03:31:55;13.10;;;7.10;;
61938;SDS011;47897;50.322;18.892;2023-04-03T03:34:21;15.70;;;7.40;;
61938;SDS011;47897;50.322;18.892;2023-04-03T03:36:47;16.80;;;6.00;;
61938;SDS011;47897;50.322;18.892;2023-04-03T03:39:13;11.40;;;5.10;;
61938;SDS011;47897;50.322;18.892;2023-04-03T03:41:39;18.30;;;6.70;;
61938;SDS011;47897;50.322;18.892;2023-04-03T03:44:05;11.60;;;5.60;;
61938;SDS011;47897;50.322;18.892;2023-04-03T03:46:31;11.30;;;4.70;;
61938;SDS011;47897;50.322;18.892;2023-04-03T03:48:57;16.80;;;6.70;;
61938;SDS011;47897;50.322;18.892;2023-04-03T03:51:23;11.00;;;5.10;;
61938;SDS011;47897;50.322;18.892;2023-04-03T03:53:49;12.10;;;5.10;;
61938;SDS011;47897;50.322;18.892;2023-04-03T03:56:15;14.70;;;5.90;;
61938;SDS011;47897;50.322;18.892;2023-04-03T03:58:41;14.50;;;6.00;;
61938;SDS011;47897;50.322;18.892;2023-04-03T04:01:07;11.40;;;5.60;;
61938;SDS011;47897;50.322;18.892;2023-04-03T04:03:33;15.30;;;6.90;;
61938;SDS011;47897;50.322;18.892;2023-04-03T04:05:59;15.20;;;6.50;;
61938;SDS011;47897;50.322;18.892;2023-04-03T04:08:25;12.40;;;4.90;;
61938;SDS011;47897;50.322;18.892;2023-04-03T04:10:51;13.40;;;5.20;;
61938;SDS011;47897;50.322;18.892;2023-04-03T04:13:17;12.80;;;6.60;;
61938;SDS011;47897;50.322;18.892;2023-04-03T04:15:43;13.10;;;6.00;;
61938;SDS011;47897;50.322;18.892;2023-04-03T04:18:09;10.00;;;5.10;;
61938;SDS011;47897;50.322;18.892;2023-04-03T04:20:35;10.50;;;4.50;;
61938;SDS011;47897;50.322;18.892;2023-04-03T04:23:01;9.60;;;3.20;;
61938;SDS011;47897;50.322;18.892;2023-04-03T04:25:27;14.50;;;6.10;;
61938;SDS011;47897;50.322;18.892;2023-04-03T04:27:53;13.80;;;5.40;;
61938;SDS011;47897;50.322;18.892;2023-04-03T04:30:19;15.30;;;7.40;;
61938;SDS011;47897;50.322;18.892;2023-04-03T04:32:45;12.90;;;5.30;;
61938;SDS011;47897;50.322;18.892;2023-04-03T04:35:11;14.70;;;5.90;;
61938;SDS011;47897;50.322;18.892;2023-04-03T04:37:37;13.70;;;5.80;;
61938;SDS011;47897;50.322;18.892;2023-04-03T04:40:03;11.00;;;4.70;;
61938;SDS011;47897;50.322;18.892;2023-04-03T04:42:29;12.90;;;5.60;;
61938;SDS011;47897;50.322;18.892;2023-04-03T04:44:55;15.10;;;6.30;;
61938;SDS011;47897;50.322;18.892;2023-04-03T04:47:21;17.10;;;4.60;;
61938;SDS011;47897;50.322;18.892;2023-04-03T04:49:47;11.80;;;5.00;;
61938;SDS011;47897;50.322;18.892;2023-04-03T04:52:13;10.30;;;4.60;;
61938;SDS011;47897;50.322;18.892;2023-04-03T04:54:39;12.10;;;4.50;;
61938;SDS011;47897;50.322;18.892;2023-04-03T04:57:05;19.20;;;7.20;;
61938;SDS011;47897;50.322;18.892;2023-04-03T04:59:32;8.90;;;4.20;;
61938;SDS011;47897;50.322;18.892;2023-04-03T05:01:58;16.20;;;6.80;;
61938;SDS011;47897;50.322;18.892;2023-04-03T05:04:24;10.50;;;4.20;;
61938;SDS011;47897;50.322;18.892;2023-04-03T05:06:50;10.40;;;5.20;;
61938;SDS011;47897;50.322;18.892;2023-04-03T05:09:16;16.00;;;6.00;;
61938;SDS011;47897;50.322;18.892;2023-04-03T05:11:42;13.90;;;5.90;;
61938;SDS011;47897;50.322;18.892;2023-04-03T05:14:08;17.40;;;7.40;;
61938;SDS011;47897;50.322;18.892;2023-04-03T05:16:34;19.50;;;7.30;;
61938;SDS011;47897;50.322;18.892;2023-04-03T05:19:00;17.50;;;7.50;;
61938;SDS011;47897;50.322;18.892;2023-04-03T05:21:26;12.70;;;6.00;;
61938;SDS011;47897;50.322;18.892;2023-04-03T05:23:54;11.20;;;5.30;;
61938;SDS011;47897;50.322;18.892;2023-04-03T05:26:20;14.80;;;6.80;;
61938;SDS011;47897;50.322;18.892;2023-04-03T05:28:46;11.50;;;5.40;;
61938;SDS011;47897;50.322;18.892;2023-04-03T05:31:12;15.40;;;6.50;;
61938;SDS011;47897;50.322;18.892;2023-04-03T05:33:38;17.20;;;7.20;;
61938;SDS011;47897;50.322;18.892;2023-04-03T05:36:04;16.10;;;6.90;;
61938;SDS011;47897;50.322;18.892;2023-04-03T05:38:31;17.00;;;6.90;;
61938;SDS011;47897;50.322;18.892;2023-04-03T05:40:57;17.60;;;8.00;;
61938;SDS011;47897;50.322;18.892;2023-04-03T05:43:23;16.80;;;8.00;;
61938;SDS011;47897;50.322;18.892;2023-04-03T05:45:50;16.00;;;6.80;;
61938;SDS011;47897;50.322;18.892;2023-04-03T05:48:16;16.60;;;7.00;;
61938;SDS011;47897;50.322;18.892;2023-04-03T05:50:42;21.80;;;10.00;;
61938;SDS011;47897;50.322;18.892;2023-04-03T05:53:12;14.80;;;7.10;;
61938;SDS011;47897;50.322;18.892;2023-04-03T05:55:40;18.40;;;7.40;;
61938;SDS011;47897;50.322;18.892;2023-04-03T05:58:06;30.70;;;11.70;;
61938;SDS011;47897;50.322;18.892;2023-04-03T06:00:32;24.00;;;10.90;;
61938;SDS011;47897;50.322;18.892;2023-04-03T06:02:58;24.90;;;12.20;;
61938;SDS011;47897;50.322;18.892;2023-04-03T06:05:24;28.30;;;13.00;;
61938;SDS011;47897;50.322;18.892;2023-04-03T06:07:50;25.30;;;12.00;;
61938;SDS011;47897;50.322;18.892;2023-04-03T06:10:16;13.70;;;6.60;;
61938;SDS011;47897;50.322;18.892;2023-04-03T06:12:43;12.30;;;7.10;;
61938;SDS011;47897;50.322;18.892;2023-04-03T06:15:09;17.10;;;8.70;;
61938;SDS011;47897;50.322;18.892;2023-04-03T06:17:36;26.90;;;11.70;;
61938;SDS011;47897;50.322;18.892;2023-04-03T06:20:03;26.40;;;9.50;;
61938;SDS011;47897;50.322;18.892;2023-04-03T06:22:29;26.20;;;10.60;;
61938;SDS011;47897;50.322;18.892;2023-04-03T06:24:56;28.10;;;11.00;;
61938;SDS011;47897;50.322;18.892;2023-04-03T06:27:22;15.20;;;7.60;;
61938;SDS011;47897;50.322;18.892;2023-04-03T06:29:48;17.80;;;8.10;;
61938;SDS011;47897;50.322;18.892;2023-04-03T06:32:15;22.60;;;9.40;;
61938;SDS011;47897;50.322;18.892;2023-04-03T06:34:41;22.60;;;8.90;;
61938;SDS011;47897;50.322;18.892;2023-04-03T06:37:16;22.40;;;9.10;;
61938;SDS011;47897;50.322;18.892;2023-04-03T06:39:43;20.00;;;7.60;;
61938;SDS011;47897;50.322;18.892;2023-04-03T06:42:09;15.90;;;6.80;;
61938;SDS011;47897;50.322;18.892;2023-04-03T06:44:35;18.50;;;8.40;;
61938;SDS011;47897;50.322;18.892;2023-04-03T06:47:01;16.60;;;7.90;;
61938;SDS011;47897;50.322;18.892;2023-04-03T06:49:27;16.20;;;7.10;;
61938;SDS011;47897;50.322;18.892;2023-04-03T06:51:54;23.90;;;9.60;;
61938;SDS011;47897;50.322;18.892;2023-04-03T06:54:22;20.40;;;9.10;;
61938;SDS011;47897;50.322;18.892;2023-04-03T06:56:48;13.70;;;7.60;;
61938;SDS011;47897;50.322;18.892;2023-04-03T06:59:14;19.60;;;7.80;;
61938;SDS011;47897;50.322;18.892;2023-04-03T07:01:40;21.40;;;9.10;;
61938;SDS011;47897;50.322;18.892;2023-04-03T07:04:07;15.50;;;7.70;;
61938;SDS011;47897;50.322;18.892;2023-04-03T07:06:34;15.60;;;7.50;;
61938;SDS011;47897;50.322;18.892;2023-04-03T07:09:00;20.10;;;10.10;;
61938;SDS011;47897;50.322;18.892;2023-04-03T07:11:26;24.30;;;10.40;;
61938;SDS011;47897;50.322;18.892;2023-04-03T07:13:52;37.80;;;13.60;;
61938;SDS011;47897;50.322;18.892;2023-04-03T07:16:19;31.90;;;12.30;;
61938;SDS011;47897;50.322;18.892;2023-04-03T07:18:46;25.00;;;11.60;;
61938;SDS011;47897;50.322;18.892;2023-04-03T07:21:12;19.00;;;10.60;;
61938;SDS011;47897;50.322;18.892;2023-04-03T07:23:38;12.80;;;5.70;;
61938;SDS011;47897;50.322;18.892;2023-04-03T07:26:05;20.80;;;8.70;;
61938;SDS011;47897;50.322;18.892;2023-04-03T07:28:32;13.90;;;6.20;;
61938;SDS011;47897;50.322;18.892;2023-04-03T07:31:03;15.10;;;7.70;;
61938;SDS011;47897;50.322;18.892;2023-04-03T07:33:29;14.30;;;7.10;;
61938;SDS011;47897;50.322;18.892;2023-04-03T07:35:56;19.30;;;8.70;;
61938;SDS011;47897;50.322;18.892;2023-04-03T07:38:22;11.30;;;6.50;;
61938;SDS011;47897;50.322;18.892;2023-04-03T07:40:49;22.80;;;8.90;;
61938;SDS011;47897;50.322;18.892;2023-04-03T07:43:17;20.80;;;7.90;;
61938;SDS011;47897;50.322;18.892;2023-04-03T07:45:43;16.30;;;8.30;;
61938;SDS011;47897;50.322;18.892;2023-04-03T07:48:09;25.00;;;11.00;;
61938;SDS011;47897;50.322;18.892;2023-04-03T07:50:36;8.80;;;3.70;;
61938;SDS011;47897;50.322;18.892;2023-04-03T07:53:02;23.50;;;10.20;;
61938;SDS011;47897;50.322;18.892;2023-04-03T07:55:28;21.30;;;10.20;;
61938;SDS011;47897;50.322;18.892;2023-04-03T07:57:54;16.20;;;7.20;;
61938;SDS011;47897;50.322;18.892;2023-04-03T08:00:21;14.50;;;6.00;;
61938;SDS011;47897;50.322;18.892;2023-04-03T08:02:47;14.30;;;6.20;;
61938;SDS011;47897;50.322;18.892;2023-04-03T08:05:17;16.60;;;7.90;;
61938;SDS011;47897;50.322;18.892;2023-04-03T08:07:44;16.80;;;7.70;;
61938;SDS011;47897;50.322;18.892;2023-04-03T08:10:10;14.40;;;6.50;;
61938;SDS011;47897;50.322;18.892;2023-04-03T08:12:36;18.10;;;7.60;;
61938;SDS011;47897;50.322;18.892;2023-04-03T08:15:02;12.20;;;5.40;;
61938;SDS011;47897;50.322;18.892;2023-04-03T08:17:29;13.80;;;5.50;;
61938;SDS011;47897;50.322;18.892;2023-04-03T08:19:55;9.10;;;5.10;;
61938;SDS011;47897;50.322;18.892;2023-04-03T08:22:21;13.80;;;5.60;;
61938;SDS011;47897;50.322;18.892;2023-04-03T08:24:47;10.80;;;6.20;;
61938;SDS011;47897;50.322;18.892;2023-04-03T08:27:13;20.10;;;8.40;;
61938;SDS011;47897;50.322;18.892;2023-04-03T08:29:38;18.70;;;6.40;;
61938;SDS011;47897;50.322;18.892;2023-04-03T08:32:05;14.70;;;7.10;;
61938;SDS011;47897;50.322;18.892;2023-04-03T08:34:32;11.00;;;6.00;;
61938;SDS011;47897;50.322;18.892;2023-04-03T08:37:00;12.90;;;4.90;;
61938;SDS011;47897;50.322;18.892;2023-04-03T08:39:27;19.10;;;6.00;;
61938;SDS011;47897;50.322;18.892;2023-04-03T08:41:55;17.70;;;7.90;;
61938;SDS011;47897;50.322;18.892;2023-04-03T08:44:39;15.80;;;5.80;;
61938;SDS011;47897;50.322;18.892;2023-04-03T08:49:53;17.80;;;6.40;;
61938;SDS011;47897;50.322;18.892;2023-04-03T08:54:58;14.50;;;5.90;;
61938;SDS011;47897;50.322;18.892;2023-04-03T08:57:40;11.30;;;4.90;;
61938;SDS011;47897;50.322;18.892;2023-04-03T09:02:34;13.70;;;5.00;;
61938;SDS011;47897;50.322;18.892;2023-04-03T09:05:01;7.50;;;3.90;;
61938;SDS011;47897;50.322;18.892;2023-04-03T09:07:36;8.60;;;3.80;;
61938;SDS011;47897;50.322;18.892;2023-04-03T09:10:05;8.20;;;4.50;;
61938;SDS011;47897;50.322;18.892;2023-04-03T09:13:05;10.00;;;4.70;;
61938;SDS011;47897;50.322;18.892;2023-04-03T09:15:24;13.80;;;6.20;;
61938;SDS011;47897;50.322;18.892;2023-04-03T09:26:14;13.70;;;5.30;;
61938;SDS011;47897;50.322;18.892;2023-04-03T09:28:42;12.90;;;5.80;;
61938;SDS011;47897;50.322;18.892;2023-04-03T09:33:43;14.40;;;6.10;;
61938;SDS011;47897;50.322;18.892;2023-04-03T09:36:09;12.60;;;4.40;;
61938;SDS011;47897;50.322;18.892;2023-04-03T09:38:35;7.00;;;2.60;;
61938;SDS011;47897;50.322;18.892;2023-04-03T09:41:04;6.10;;;2.80;;
61938;SDS011;47897;50.322;18.892;2023-04-03T09:43:31;8.60;;;3.20;;
61938;SDS011;47897;50.322;18.892;2023-04-03T09:46:18;9.20;;;4.30;;
61938;SDS011;47897;50.322;18.892;2023-04-03T09:48:49;11.60;;;5.30;;
61938;SDS011;47897;50.322;18.892;2023-04-03T09:51:16;11.30;;;4.60;;
61938;SDS011;47897;50.322;18.892;2023-04-03T09:53:42;8.50;;;4.00;;
61938;SDS011;47897;50.322;18.892;2023-04-03T09:58:45;6.90;;;4.20;;
61938;SDS011;47897;50.322;18.892;2023-04-03T10:01:23;8.00;;;3.50;;
61938;SDS011;47897;50.322;18.892;2023-04-03T10:04:02;11.20;;;3.90;;
61938;SDS011;47897;50.322;18.892;2023-04-03T10:06:29;9.70;;;4.60;;
61938;SDS011;47897;50.322;18.892;2023-04-03T10:09:00;10.20;;;4.90;;
61938;SDS011;47897;50.322;18.892;2023-04-03T10:11:26;12.10;;;4.40;;
61938;SDS011;47897;50.322;18.892;2023-04-03T10:16:21;5.20;;;2.90;;
61938;SDS011;47897;50.322;18.892;2023-04-03T10:24:13;6.80;;;4.30;;
61938;SDS011;47897;50.322;18.892;2023-04-03T10:30:08;11.30;;;3.50;;
61938;SDS011;47897;50.322;18.892;2023-04-03T10:35:02;7.10;;;4.20;;
61938;SDS011;47897;50.322;18.892;2023-04-03T10:37:30;10.00;;;5.00;;
61938;SDS011;47897;50.322;18.892;2023-04-03T10:40:11;13.50;;;5.70;;
61938;SDS011;47897;50.322;18.892;2023-04-03T10:42:46;9.70;;;4.80;;
61938;SDS011;47897;50.322;18.892;2023-04-03T10:45:21;8.70;;;3.30;;
61938;SDS011;47897;50.322;18.892;2023-04-03T10:50:24;11.30;;;6.20;;
61938;SDS011;47897;50.322;18.892;2023-04-03T10:52:55;9.60;;;5.40;;
61938;SDS011;47897;50.322;18.892;2023-04-03T10:57:55;6.70;;;4.00;;
61938;SDS011;47897;50.322;18.892;2023-04-03T11:00:25;6.50;;;3.10;;
61938;SDS011;47897;50.322;18.892;2023-04-03T11:02:59;10.80;;;3.70;;
61938;SDS011;47897;50.322;18.892;2023-04-03T11:05:30;7.60;;;3.00;;
61938;SDS011;47897;50.322;18.892;2023-04-03T11:07:59;4.90;;;2.50;;
61938;SDS011;47897;50.322;18.892;2023-04-03T11:10:41;6.80;;;3.20;;
61938;SDS011;47897;50.322;18.892;2023-04-03T11:13:11;8.20;;;4.20;;
61938;SDS011;47897;50.322;18.892;2023-04-03T11:15:38;8.70;;;4.80;;
61938;SDS011;47897;50.322;18.892;2023-04-03T11:18:12;6.10;;;3.40;;
61938;SDS011;47897;50.322;18.892;2023-04-03T11:20:40;8.50;;;4.10;;
61938;SDS011;47897;50.322;18.892;2023-04-03T11:25:46;7.80;;;3.50;;
61938;SDS011;47897;50.322;18.892;2023-04-03T11:28:15;44.70;;;15.10;;
61938;SDS011;47897;50.322;18.892;2023-04-03T11:35:49;10.80;;;6.50;;
61938;SDS011;47897;50.322;18.892;2023-04-03T11:38:19;8.20;;;5.10;;
61938;SDS011;47897;50.322;18.892;2023-04-03T11:40:47;7.00;;;3.00;;
61938;SDS011;47897;50.322;18.892;2023-04-03T11:43:27;7.60;;;3.90;;
61938;SDS011;47897;50.322;18.892;2023-04-03T11:45:58;6.00;;;3.80;;
61938;SDS011;47897;50.322;18.892;2023-04-03T11:50:52;12.60;;;6.70;;
61938;SDS011;47897;50.322;18.892;2023-04-03T11:53:26;9.20;;;4.60;;
61938;SDS011;47897;50.322;18.892;2023-04-03T11:55:54;6.50;;;3.20;;
61938;SDS011;47897;50.322;18.892;2023-04-03T11:58:22;9.80;;;5.20;;
61938;SDS011;47897;50.322;18.892;2023-04-03T12:00:49;8.00;;;4.70;;
61938;SDS011;47897;50.322;18.892;2023-04-03T12:06:41;8.30;;;4.40;;
61938;SDS011;47897;50.322;18.892;2023-04-03T12:13:35;6.60;;;4.40;;
61938;SDS011;47897;50.322;18.892;2023-04-03T12:16:02;5.30;;;3.10;;
61938;SDS011;47897;50.322;18.892;2023-04-03T12:20:58;14.90;;;7.00;;
61938;SDS011;47897;50.322;18.892;2023-04-03T12:23:25;8.20;;;4.40;;
61938;SDS011;47897;50.322;18.892;2023-04-03T12:25:52;9.60;;;5.40;;
61938;SDS011;47897;50.322;18.892;2023-04-03T12:28:24;10.90;;;5.10;;
61938;SDS011;47897;50.322;18.892;2023-04-03T12:30:50;6.50;;;3.30;;
61938;SDS011;47897;50.322;18.892;2023-04-03T12:33:36;5.90;;;3.20;;
61938;SDS011;47897;50.322;18.892;2023-04-03T12:36:11;8.30;;;4.20;;
61938;SDS011;47897;50.322;18.892;2023-04-03T12:46:47;4.60;;;3.00;;
61938;SDS011;47897;50.322;18.892;2023-04-03T12:49:31;6.20;;;3.50;;
61938;SDS011;47897;50.322;18.892;2023-04-03T12:51:58;7.50;;;3.40;;
61938;SDS011;47897;50.322;18.892;2023-04-03T12:54:40;15.20;;;5.40;;
61938;SDS011;47897;50.322;18.892;2023-04-03T12:57:11;7.50;;;3.70;;
61938;SDS011;47897;50.322;18.892;2023-04-03T12:59:37;6.20;;;3.90;;
61938;SDS011;47897;50.322;18.892;2023-04-03T13:02:09;9.30;;;5.80;;
61938;SDS011;47897;50.322;18.892;2023-04-03T13:04:37;21.80;;;10.20;;
61938;SDS011;47897;50.322;18.892;2023-04-03T13:07:05;27.10;;;11.30;;
61938;SDS011;47897;50.322;18.892;2023-04-03T13:09:31;7.80;;;4.90;;
61938;SDS011;47897;50.322;18.892;2023-04-03T13:12:00;5.70;;;3.00;;
61938;SDS011;47897;50.322;18.892;2023-04-03T13:14:27;10.90;;;4.40;;
61938;SDS011;47897;50.322;18.892;2023-04-03T13:16:55;5.30;;;3.30;;
61938;SDS011;47897;50.322;18.892;2023-04-03T13:19:22;5.80;;;3.30;;
61938;SDS011;47897;50.322;18.892;2023-04-03T13:21:49;5.50;;;3.50;;
61938;SDS011;47897;50.322;18.892;2023-04-03T13:24:18;4.80;;;3.00;;
61938;SDS011;47897;50.322;18.892;2023-04-03T13:26:45;5.50;;;3.90;;
61938;SDS011;47897;50.322;18.892;2023-04-03T13:29:28;6.70;;;3.60;;
61938;SDS011;47897;50.322;18.892;2023-04-03T13:31:55;7.00;;;3.60;;
61938;SDS011;47897;50.322;18.892;2023-04-03T13:34:22;7.00;;;3.60;;
61938;SDS011;47897;50.322;18.892;2023-04-03T13:39:24;5.50;;;3.40;;
61938;SDS011;47897;50.322;18.892;2023-04-03T13:41:52;5.80;;;3.00;;
61938;SDS011;47897;50.322;18.892;2023-04-03T13:46:48;7.00;;;3.20;;
61938;SDS011;47897;50.322;18.892;2023-04-03T13:49:21;7.20;;;4.20;;
61938;SDS011;47897;50.322;18.892;2023-04-03T13:51:48;6.80;;;3.50;;
61938;SDS011;47897;50.322;18.892;2023-04-03T13:54:23;6.20;;;3.00;;
61938;SDS011;47897;50.322;18.892;2023-04-03T13:56:55;6.30;;;3.10;;
61938;SDS011;47897;50.322;18.892;2023-04-03T14:01:53;7.50;;;4.00;;
61938;SDS011;47897;50.322;18.892;2023-04-03T14:04:21;5.60;;;3.30;;
61938;SDS011;47897;50.322;18.892;2023-04-03T14:06:48;8.40;;;5.00;;
61938;SDS011;47897;50.322;18.892;2023-04-03T14:09:15;11.00;;;6.40;;
61938;SDS011;47897;50.322;18.892;2023-04-03T14:11:41;5.20;;;3.80;;
61938;SDS011;47897;50.322;18.892;2023-04-03T14:14:16;7.80;;;4.10;;
61938;SDS011;47897;50.322;18.892;2023-04-03T14:16:43;9.70;;;5.80;;
61938;SDS011;47897;50.322;18.892;2023-04-03T14:19:18;6.30;;;3.80;;
61938;SDS011;47897;50.322;18.892;2023-04-03T14:21:44;8.50;;;4.00;;
61938;SDS011;47897;50.322;18.892;2023-04-03T14:24:10;11.20;;;6.10;;
61938;SDS011;47897;50.322;18.892;2023-04-03T14:26:37;6.30;;;4.00;;
61938;SDS011;47897;50.322;18.892;2023-04-03T14:29:03;5.40;;;3.70;;
61938;SDS011;47897;50.322;18.892;2023-04-03T14:31:29;6.20;;;3.60;;
61938;SDS011;47897;50.322;18.892;2023-04-03T14:33:55;7.80;;;4.60;;
61938;SDS011;47897;50.322;18.892;2023-04-03T14:36:22;7.10;;;4.10;;
61938;SDS011;47897;50.322;18.892;2023-04-03T14:38:51;4.70;;;3.10;;
61938;SDS011;47897;50.322;18.892;2023-04-03T14:41:18;8.10;;;4.30;;
61938;SDS011;47897;50.322;18.892;2023-04-03T14:43:44;5.60;;;3.40;;
61938;SDS011;47897;50.322;18.892;2023-04-03T14:46:22;5.90;;;4.40;;
61938;SDS011;47897;50.322;18.892;2023-04-03T14:48:49;4.90;;;3.10;;
61938;SDS011;47897;50.322;18.892;2023-04-03T14:51:16;9.30;;;4.00;;
61938;SDS011;47897;50.322;18.892;2023-04-03T14:53:42;4.80;;;3.10;;
61938;SDS011;47897;50.322;18.892;2023-04-03T14:56:13;8.70;;;4.60;;
61938;SDS011;47897;50.322;18.892;2023-04-03T14:58:41;4.70;;;3.30;;
61938;SDS011;47897;50.322;18.892;2023-04-03T15:01:18;8.00;;;3.90;;
61938;SDS011;47897;50.322;18.892;2023-04-03T15:03:44;8.60;;;4.40;;
61938;SDS011;47897;50.322;18.892;2023-04-03T15:06:11;7.00;;;5.00;;
61938;SDS011;47897;50.322;18.892;2023-04-03T15:08:38;8.30;;;4.50;;
61938;SDS011;47897;50.322;18.892;2023-04-03T15:11:04;9.10;;;5.00;;
61938;SDS011;47897;50.322;18.892;2023-04-03T15:13:30;7.70;;;4.20;;
61938;SDS011;47897;50.322;18.892;2023-04-03T15:15:56;8.20;;;5.60;;
61938;SDS011;47897;50.322;18.892;2023-04-03T15:18:24;5.10;;;3.30;;
61938;SDS011;47897;50.322;18.892;2023-04-03T15:20:54;8.70;;;4.70;;
61938;SDS011;47897;50.322;18.892;2023-04-03T15:23:20;7.60;;;4.30;;
61938;SDS011;47897;50.322;18.892;2023-04-03T15:25:51;12.00;;;5.40;;
61938;SDS011;47897;50.322;18.892;2023-04-03T15:28:32;26.70;;;16.70;;
61938;SDS011;47897;50.322;18.892;2023-04-03T15:30:59;17.20;;;13.40;;
61938;SDS011;47897;50.322;18.892;2023-04-03T15:33:25;11.80;;;7.30;;
61938;SDS011;47897;50.322;18.892;2023-04-03T15:35:51;10.50;;;6.10;;
61938;SDS011;47897;50.322;18.892;2023-04-03T15:38:17;27.00;;;15.80;;
61938;SDS011;47897;50.322;18.892;2023-04-03T15:40:43;45.70;;;27.40;;
61938;SDS011;47897;50.322;18.892;2023-04-03T15:43:10;31.10;;;17.90;;
61938;SDS011;47897;50.322;18.892;2023-04-03T15:45:36;16.00;;;12.30;;